createdAt,value
2023-05-03T00:01:44.405Z,101235.02
2023-05-03T00:04:11.861Z,101236.70
2023-05-03T00:06:39.281Z,101235.05
2023-05-03T00:09:06.446Z,101233.83
2023-05-03T00:11:34.330Z,101231.41
2023-05-03T00:14:01.733Z,101234.88
2023-05-03T00:16:28.907Z,101233.94
2023-05-03T00:18:56.118Z,101235.23
2023-05-03T00:21:23.392Z,101238.21
2023-05-03T00:23:50.615Z,101239.16
2023-05-03T00:26:17.631Z,101245.77
2023-05-03T00:28:44.995Z,101244.38
2023-05-03T00:31:12.063Z,101244.43
2023-05-03T00:33:40.215Z,101250.20
2023-05-03T00:36:09.314Z,101250.16
2023-05-03T00:38:37.283Z,101246.86
2023-05-03T00:41:05.327Z,101248.91
2023-05-03T00:43:32.983Z,101251.05
2023-05-03T00:46:15.192Z,101251.71
2023-05-03T00:48:45.785Z,101258.73
2023-05-03T00:51:15.969Z,101254.65
2023-05-03T00:53:43.832Z,101256.16
2023-05-03T00:56:12.237Z,101257.70
2023-05-03T00:58:40.796Z,101257.05
2023-05-03T01:01:09.056Z,101261.17
2023-05-03T01:03:41.489Z,101259.96
2023-05-03T01:06:28.639Z,101260.98
2023-05-03T01:09:02.098Z,101261.52
2023-05-03T01:11:41.465Z,101258.91
2023-05-03T01:14:09.187Z,101260.15
2023-05-03T01:17:05.654Z,101255.28
2023-05-03T01:20:05.444Z,101260.30
2023-05-03T01:22:41.960Z,101264.29
2023-05-03T01:25:10.950Z,101266.05
2023-05-03T01:27:40.612Z,101264.79
2023-05-03T01:30:09.910Z,101265.98
2023-05-03T01:32:53.088Z,101269.84
2023-05-03T01:35:42.439Z,101269.61
2023-05-03T01:38:10.988Z,101275.45
2023-05-03T01:40:47.621Z,101278.52
2023-05-03T01:43:17.390Z,101276.38
2023-05-03T01:45:45.290Z,101277.86
2023-05-03T01:48:16.042Z,101280.59
2023-05-03T01:50:43.675Z,101283.83
2023-05-03T01:53:10.987Z,101287.63
2023-05-03T01:55:38.099Z,101287.78
2023-05-03T01:58:05.612Z,101287.93
2023-05-03T02:00:33.176Z,101295.19
2023-05-03T02:03:00.366Z,101300.55
2023-05-03T02:05:27.625Z,101303.74
2023-05-03T02:07:54.748Z,101304.73
2023-05-03T02:10:22.555Z,101303.52
2023-05-03T02:12:49.713Z,101306.05
2023-05-03T02:15:18.742Z,101310.52
2023-05-03T02:17:47.498Z,101309.96
2023-05-03T02:20:14.719Z,101314.71
2023-05-03T02:22:42.672Z,101313.65
2023-05-03T02:25:09.813Z,101320.30
2023-05-03T02:27:38.058Z,101327.88
2023-05-03T02:30:06.941Z,101328.99
2023-05-03T02:32:36.609Z,101333.84
2023-05-03T02:35:03.971Z,101333.42
2023-05-03T02:37:31.107Z,101333.08
2023-05-03T02:39:58.246Z,101337.17
2023-05-03T02:42:25.403Z,101340.71
2023-05-03T02:44:52.529Z,101341.31
2023-05-03T02:47:19.616Z,101342.52
2023-05-03T02:49:48.411Z,101343.50
2023-05-03T02:52:16.217Z,101345.25
2023-05-03T02:54:43.254Z,101345.30
2023-05-03T02:57:11.886Z,101347.20
2023-05-03T02:59:38.922Z,101349.71
2023-05-03T03:02:06.183Z,101349.55
2023-05-03T03:04:33.561Z,101351.73
2023-05-03T03:07:01.207Z,101349.61
2023-05-03T03:09:28.547Z,101347.55
2023-05-03T03:11:55.845Z,101349.91
2023-05-03T03:14:23.140Z,101349.48
2023-05-03T03:16:51.994Z,101350.48
2023-05-03T03:19:19.174Z,101351.39
2023-05-03T03:21:46.257Z,101348.19
2023-05-03T03:24:13.310Z,101348.22
2023-05-03T03:26:40.818Z,101350.61
2023-05-03T03:29:10.311Z,101347.95
2023-05-03T03:31:37.905Z,101350.59
2023-05-03T03:34:05.039Z,101349.73
2023-05-03T03:36:32.242Z,101355.10
2023-05-03T03:38:59.584Z,101348.41
2023-05-03T03:41:27.151Z,101349.80
2023-05-03T03:43:55.093Z,101349.50
2023-05-03T03:46:22.310Z,101346.04
2023-05-03T03:48:50.064Z,101346.23
2023-05-03T03:51:17.317Z,101341.18
2023-05-03T03:53:45.427Z,101343.02
2023-05-03T03:56:12.849Z,101338.33
2023-05-03T03:58:40.890Z,101339.34
2023-05-03T04:01:08.237Z,101337.86
2023-05-03T04:03:35.569Z,101338.34
2023-05-03T04:06:02.851Z,101335.29
2023-05-03T04:08:30.601Z,101333.40
2023-05-03T04:10:57.737Z,101332.46
2023-05-03T04:13:25.309Z,101331.84
2023-05-03T04:15:57.196Z,101326.94
2023-05-03T04:18:24.904Z,101330.52
2023-05-03T04:20:52.448Z,101331.57
2023-05-03T04:23:21.478Z,101332.48
2023-05-03T04:25:48.950Z,101331.85
2023-05-03T04:28:17.291Z,101332.76
2023-05-03T04:30:47.690Z,101332.06
2023-05-03T04:33:17.204Z,101334.50
2023-05-03T04:35:44.531Z,101335.85
2023-05-03T04:38:14.083Z,101334.44
2023-05-03T04:40:41.473Z,101333.16
2023-05-03T04:43:09.941Z,101330.61
2023-05-03T04:45:39.914Z,101332.34
2023-05-03T04:48:09.567Z,101334.55
2023-05-03T04:50:36.784Z,101336.17
2023-05-03T04:53:04.668Z,101333.56
2023-05-03T04:55:33.518Z,101334.71
2023-05-03T04:58:02.290Z,101334.71
2023-05-03T05:00:29.600Z,101337.02
2023-05-03T05:03:01.476Z,101338.48
2023-05-03T05:05:30.404Z,101340.70
2023-05-03T05:07:58.931Z,101343.32
2023-05-03T05:10:28.115Z,101346.00
2023-05-03T05:12:55.739Z,101340.43
2023-05-03T05:15:22.869Z,101340.27
2023-05-03T05:17:50.714Z,101381.29
2023-05-03T05:20:19.144Z,101420.94
2023-05-03T05:22:47.598Z,101419.42
2023-05-03T11:21:06.721Z,101237.61
2023-05-03T11:23:33.943Z,101242.40
2023-05-03T11:26:01.103Z,101247.69
2023-05-03T11:28:28.190Z,101243.89
2023-05-03T11:30:55.288Z,101243.80
2023-05-03T11:33:22.470Z,101242.73
2023-05-03T11:35:49.544Z,101237.82
2023-05-03T11:38:16.805Z,101239.71
2023-05-03T11:40:43.914Z,101234.04
2023-05-03T11:43:11.002Z,101231.67
2023-05-03T11:45:42.516Z,101235.98
2023-05-03T11:48:11.197Z,101233.70
2023-05-03T11:50:55.810Z,101236.18
2023-05-03T11:53:24.599Z,101231.68
2023-05-03T11:55:56.227Z,101232.09
2023-05-03T11:58:27.599Z,101234.59
2023-05-03T12:00:57.310Z,101233.39
2023-05-03T12:03:32.229Z,101265.34
2023-05-03T12:06:02.279Z,101289.66
2023-05-03T12:08:36.650Z,101272.98
2023-05-03T12:11:06.816Z,101266.54
2023-05-03T12:13:38.583Z,101269.36
2023-05-03T12:18:58.170Z,101258.38
2023-05-03T12:21:31.544Z,101244.11
2023-05-03T12:24:01.260Z,101241.55
2023-05-03T12:26:28.938Z,101242.26
2023-05-03T12:28:57.392Z,101231.81
2023-05-03T12:31:24.829Z,101227.30
2023-05-03T12:36:25.847Z,101217.77
2023-05-03T12:38:56.228Z,101218.08
2023-05-03T12:42:04.470Z,101211.85
2023-05-03T12:44:17.053Z,101211.77
2023-05-03T12:46:45.427Z,101208.71
2023-05-03T12:49:15.133Z,101198.08
2023-05-03T12:51:43.140Z,101191.91
2023-05-03T12:54:12.006Z,101187.35
2023-05-03T12:56:40.865Z,101183.88
2023-05-03T12:59:39.413Z,101178.62
2023-05-03T13:06:59.860Z,101171.61
2023-05-03T13:09:37.944Z,101169.93
2023-05-03T13:12:15.555Z,101166.91
2023-05-03T13:14:43.052Z,101164.98
2023-05-03T13:17:10.410Z,101168.02
2023-05-03T13:19:37.966Z,101163.64
2023-05-03T13:22:05.286Z,101167.18
2023-05-03T13:24:32.582Z,101160.16
2023-05-03T13:27:00.232Z,101159.55
2023-05-03T13:29:27.310Z,101159.35
2023-05-03T13:31:54.449Z,101158.02
2023-05-03T13:34:21.864Z,101155.83
2023-05-03T13:36:49.304Z,101156.73
2023-05-03T13:39:16.811Z,101155.35
2023-05-03T13:41:44.551Z,101153.17
2023-05-03T13:44:12.677Z,101154.75
2023-05-03T13:46:41.053Z,101156.58
2023-05-03T13:49:08.612Z,101154.79
2023-05-03T13:51:36.799Z,101153.23
2023-05-03T13:54:06.087Z,101154.32
2023-05-03T13:56:34.387Z,101154.52
2023-05-03T13:59:01.607Z,101149.86
2023-05-03T14:01:29.074Z,101147.42
2023-05-03T14:03:56.473Z,101144.14
2023-05-03T14:06:23.960Z,101139.88
2023-05-03T14:08:54.454Z,101140.89
2023-05-03T14:11:28.529Z,101134.99
2023-05-03T14:13:57.394Z,101137.09
2023-05-03T14:16:40.031Z,101140.15
2023-05-03T14:19:11.089Z,101137.59
2023-05-03T14:21:38.750Z,101140.25
2023-05-03T14:28:38.134Z,101150.55
2023-05-03T14:31:06.812Z,101170.73
2023-05-03T14:33:34.523Z,101176.58
2023-05-03T14:36:01.604Z,101185.13
2023-05-03T14:38:29.687Z,101196.34
2023-05-03T14:40:57.183Z,101214.66
2023-05-03T14:43:24.299Z,101224.56
2023-05-03T14:45:51.345Z,101219.23
2023-05-03T14:48:18.706Z,101213.52
2023-05-03T14:50:50.168Z,101208.98
2023-05-03T14:53:17.606Z,101217.15
2023-05-03T14:55:45.596Z,101221.23
2023-05-03T14:58:16.012Z,101230.11
2023-05-03T15:00:43.839Z,101227.72
2023-05-03T15:03:12.491Z,101230.46
2023-05-03T15:05:44.529Z,101225.83
2023-05-03T15:08:15.350Z,101225.46
2023-05-03T15:10:44.499Z,101228.38
2023-05-03T15:13:16.736Z,101228.73
2023-05-03T15:15:44.429Z,101224.52
2023-05-03T15:18:11.861Z,101223.67
2023-05-03T15:20:39.259Z,101224.11
2023-05-03T15:23:06.571Z,101227.58
2023-05-03T15:25:33.681Z,101229.55
2023-05-03T15:28:03.618Z,101228.19
2023-05-03T15:30:32.997Z,101229.16
2023-05-03T15:33:01.220Z,101227.59
2023-05-03T15:35:28.391Z,101226.92
2023-05-03T15:37:55.513Z,101226.84
2023-05-03T15:40:25.131Z,101221.06
2023-05-03T15:42:53.965Z,101219.09
2023-05-03T15:45:23.485Z,101217.34
2023-05-03T15:47:50.852Z,101212.13
2023-05-03T15:50:18.057Z,101207.23
2023-05-03T15:52:46.936Z,101199.59
2023-05-03T15:55:14.287Z,101193.85
2023-05-03T15:57:41.531Z,101190.98
2023-05-03T16:00:09.704Z,101183.89
2023-05-03T16:02:37.674Z,101183.09
2023-05-03T16:05:05.112Z,101180.21
2023-05-03T16:07:32.344Z,101175.63
2023-05-03T16:09:59.494Z,101174.38
2023-05-03T16:12:27.532Z,101168.84
2023-05-03T16:14:55.803Z,101164.48
2023-05-03T16:17:23.414Z,101161.70
2023-05-03T16:19:50.885Z,101162.30
2023-05-03T16:22:17.929Z,101161.14
2023-05-03T16:24:47.026Z,101164.20
2023-05-03T16:27:14.503Z,101160.09
2023-05-03T16:29:41.692Z,101155.98
2023-05-03T16:32:10.015Z,101158.20
2023-05-03T16:34:37.883Z,101159.02
2023-05-03T16:37:05.485Z,101162.23
2023-05-03T16:39:32.885Z,101160.64
2023-05-03T16:41:59.949Z,101159.77
2023-05-03T16:44:27.635Z,101158.03
2023-05-03T16:46:54.695Z,101154.92
2023-05-03T16:49:21.934Z,101152.92
2023-05-03T16:51:49.046Z,101151.09
2023-05-03T16:54:16.991Z,101152.63
2023-05-03T16:56:44.730Z,101155.50
2023-05-03T16:59:12.010Z,101157.38
2023-05-03T17:01:39.307Z,101158.16
2023-05-03T17:04:07.124Z,101159.21
2023-05-03T17:06:34.759Z,101163.90
2023-05-03T17:09:01.888Z,101163.82
2023-05-03T17:11:29.324Z,101168.00
2023-05-03T17:13:56.548Z,101167.95
2023-05-03T17:16:23.792Z,101171.07
2023-05-03T17:18:50.925Z,101173.17
2023-05-03T17:21:19.330Z,101171.36
2023-05-03T17:23:46.880Z,101170.60
2023-05-03T17:26:14.586Z,101173.19
2023-05-03T17:28:43.709Z,101179.95
2023-05-03T17:31:10.904Z,101180.20
2023-05-03T17:33:38.091Z,101177.18
2023-05-03T17:36:05.529Z,101181.73
2023-05-03T17:38:34.762Z,101182.64
2023-05-03T17:41:11.842Z,101182.33
2023-05-03T17:43:39.183Z,101186.30
2023-05-03T17:46:12.349Z,101189.69
2023-05-03T17:48:48.669Z,101191.47
2023-05-03T17:51:16.037Z,101193.88
2023-05-03T17:53:43.352Z,101198.87
2023-05-03T17:56:15.289Z,101202.34
2023-05-03T17:58:42.472Z,101200.67
2023-05-03T18:01:11.202Z,101194.23
2023-05-03T18:03:38.554Z,101196.58
2023-05-03T18:06:09.918Z,101198.95
2023-05-03T18:08:37.071Z,101202.10
2023-05-03T18:11:04.142Z,101204.25
2023-05-03T18:13:34.612Z,101200.34
2023-05-03T18:16:01.867Z,101199.23
2023-05-03T18:18:29.589Z,101205.92
2023-05-03T18:21:01.535Z,101204.14
2023-05-03T18:23:28.831Z,101204.15
2023-05-03T18:25:56.011Z,101203.70
2023-05-03T18:28:24.127Z,101202.55
2023-05-03T18:30:58.219Z,101202.77
2023-05-03T18:33:25.369Z,101207.98
2023-05-03T18:35:53.251Z,101209.05
2023-05-03T18:38:21.846Z,101206.95
2023-05-03T18:40:50.131Z,101206.65
2023-05-03T18:43:17.523Z,101205.95
2023-05-03T18:45:44.878Z,101203.08
2023-05-03T18:48:12.300Z,101204.38
2023-05-03T18:50:43.117Z,101203.73
2023-05-03T18:53:14.163Z,101209.13
2023-05-03T18:55:42.209Z,101206.34
2023-05-03T18:58:09.236Z,101204.36
2023-05-03T19:00:36.461Z,101200.72
2023-05-03T19:03:04.428Z,101199.67
2023-05-03T19:05:31.697Z,101200.73
2023-05-03T19:07:58.760Z,101203.35
2023-05-03T19:10:25.925Z,101202.92
2023-05-03T19:12:55.426Z,101202.67
2023-05-03T19:15:22.624Z,101201.98
2023-05-03T19:17:49.749Z,101200.67
2023-05-03T19:20:17.772Z,101200.32
2023-05-03T19:22:45.073Z,101199.83
2023-05-03T19:25:12.367Z,101194.02
2023-05-03T19:27:39.535Z,101192.36
2023-05-03T19:30:07.497Z,101192.63
2023-05-03T19:32:39.437Z,101189.21
2023-05-03T19:35:10.753Z,101186.73
2023-05-03T19:37:37.885Z,101188.87
2023-05-03T19:40:06.105Z,101189.13
2023-05-03T19:42:33.859Z,101188.95
2023-05-03T19:45:03.631Z,101186.83
2023-05-03T19:47:30.867Z,101180.39
2023-05-03T19:49:58.037Z,101181.89
2023-05-03T19:52:25.348Z,101178.15
2023-05-03T19:54:52.419Z,101178.73
2023-05-03T19:57:19.609Z,101175.10
2023-05-03T19:59:48.431Z,101180.81
2023-05-03T20:02:15.547Z,101181.73
2023-05-03T20:04:42.720Z,101184.56
2023-05-03T20:07:09.866Z,101185.11
2023-05-03T20:09:36.896Z,101186.81
2023-05-03T20:12:06.108Z,101190.69
2023-05-03T20:14:33.237Z,101205.55
2023-05-03T20:17:00.355Z,101210.58
2023-05-03T20:19:27.718Z,101208.40
2023-05-03T20:21:55.047Z,101203.43
2023-05-03T20:24:22.364Z,101204.73
2023-05-03T20:26:49.567Z,101198.67
2023-05-03T20:29:16.651Z,101198.97
2023-05-03T20:31:44.830Z,101199.86
2023-05-03T20:34:13.908Z,101201.30
2023-05-03T20:36:41.038Z,101201.33
2023-05-03T20:39:09.870Z,101202.14
2023-05-03T20:41:38.209Z,101199.73
2023-05-03T20:44:05.551Z,101205.20
2023-05-03T20:46:32.672Z,101205.09
2023-05-03T20:48:59.829Z,101199.64
2023-05-03T20:51:26.884Z,101201.58
2023-05-03T20:53:53.974Z,101210.29
2023-05-03T20:56:21.317Z,101214.87
2023-05-03T20:58:48.648Z,101217.66
2023-05-03T21:01:15.825Z,101208.36
2023-05-03T21:03:42.947Z,101208.27
2023-05-03T21:06:10.016Z,101214.58
